sensor_id;sensor_type;location;lat;lon;timestamp;pressure;altitude;pressure_sealevel;temperature;humidity
65151;BME280;51918;51.856;0.150;2022-07-29T00:04:03;100975.72;;;14.55;55.45
65151;BME280;51918;51.856;0.150;2022-07-29T00:09:04;100973.44;;;14.52;55.83
65151;BME280;51918;51.856;0.150;2022-07-29T00:14:06;100971.59;;;14.46;56.23
65151;BME280;51918;51.856;0.150;2022-07-29T00:19:07;100959.34;;;14.40;56.38
65151;BME280;51918;51.856;0.150;2022-07-29T00:24:08;100966.81;;;14.34;56.37
65151;BME280;51918;51.856;0.150;2022-07-29T00:29:10;100957.47;;;14.33;56.47
65151;BME280;51918;51.856;0.150;2022-07-29T00:34:10;100956.66;;;14.33;56.90
65151;BME280;51918;51.856;0.150;2022-07-29T00:39:11;100954.50;;;14.36;57.05
65151;BME280;51918;51.856;0.150;2022-07-29T00:44:13;100957.03;;;14.45;57.01
65151;BME280;51918;51.856;0.150;2022-07-29T00:49:13;100944.19;;;14.51;57.12
65151;BME280;51918;51.856;0.150;2022-07-29T00:54:14;100935.53;;;14.59;57.53
65151;BME280;51918;51.856;0.150;2022-07-29T00:59:16;100936.25;;;14.68;57.24
65151;BME280;51918;51.856;0.150;2022-07-29T01:04:17;100937.94;;;14.75;56.95
65151;BME280;51918;51.856;0.150;2022-07-29T01:09:18;100940.47;;;14.84;57.35
65151;BME280;51918;51.856;0.150;2022-07-29T01:14:21;100937.34;;;14.88;57.02
65151;BME280;51918;51.856;0.150;2022-07-29T01:19:38;100940.22;;;14.93;56.83
65151;BME280;51918;51.856;0.150;2022-07-29T01:25:02;100938.31;;;15.02;57.08
65151;BME280;51918;51.856;0.150;2022-07-29T01:30:06;100938.03;;;15.12;57.04
65151;BME280;51918;51.856;0.150;2022-07-29T01:35:12;100933.94;;;15.17;56.94
65151;BME280;51918;51.856;0.150;2022-07-29T01:40:18;100939.97;;;15.25;56.66
65151;BME280;51918;51.856;0.150;2022-07-29T01:45:24;100933.81;;;15.26;56.45
65151;BME280;51918;51.856;0.150;2022-07-29T01:50:32;100919.53;;;15.30;56.82
65151;BME280;51918;51.856;0.150;2022-07-29T01:55:38;100928.88;;;15.31;56.28
65151;BME280;51918;51.856;0.150;2022-07-29T02:00:41;100922.19;;;15.36;56.63
65151;BME280;51918;51.856;0.150;2022-07-29T02:05:44;100925.81;;;15.42;56.75
65151;BME280;51918;51.856;0.150;2022-07-29T02:10:46;100938.44;;;15.45;56.64
65151;BME280;51918;51.856;0.150;2022-07-29T02:15:50;100932.84;;;15.48;56.38
65151;BME280;51918;51.856;0.150;2022-07-29T02:20:54;100922.50;;;15.48;56.48
65151;BME280;51918;51.856;0.150;2022-07-29T02:25:57;100926.16;;;15.54;56.52
65151;BME280;51918;51.856;0.150;2022-07-29T02:31:02;100927.38;;;15.58;56.81
65151;BME280;51918;51.856;0.150;2022-07-29T02:36:03;100934.78;;;15.61;56.66
65151;BME280;51918;51.856;0.150;2022-07-29T02:41:09;100927.00;;;15.61;56.80
65151;BME280;51918;51.856;0.150;2022-07-29T02:46:16;100920.63;;;15.64;56.75
65151;BME280;51918;51.856;0.150;2022-07-29T02:51:19;100923.22;;;15.64;57.02
65151;BME280;51918;51.856;0.150;2022-07-29T02:56:25;100926.28;;;15.67;57.23
65151;BME280;51918;51.856;0.150;2022-07-29T03:01:31;100920.72;;;15.70;56.69
65151;BME280;51918;51.856;0.150;2022-07-29T03:06:33;100923.13;;;15.72;57.43
65151;BME280;51918;51.856;0.150;2022-07-29T03:11:35;100929.53;;;15.76;57.58
65151;BME280;51918;51.856;0.150;2022-07-29T03:16:37;100930.97;;;15.78;57.22
65151;BME280;51918;51.856;0.150;2022-07-29T03:21:38;100927.56;;;15.78;57.22
65151;BME280;51918;51.856;0.150;2022-07-29T03:26:39;100935.00;;;15.81;57.70
65151;BME280;51918;51.856;0.150;2022-07-29T03:31:41;100941.25;;;15.87;57.91
65151;BME280;51918;51.856;0.150;2022-07-29T03:36:41;100929.69;;;15.89;57.64
65151;BME280;51918;51.856;0.150;2022-07-29T03:41:44;100941.69;;;15.90;57.64
65151;BME280;51918;51.856;0.150;2022-07-29T03:46:48;100947.50;;;15.92;57.67
65151;BME280;51918;51.856;0.150;2022-07-29T03:51:49;100953.03;;;15.89;57.84
65151;BME280;51918;51.856;0.150;2022-07-29T03:56:52;100951.28;;;15.90;57.97
65151;BME280;51918;51.856;0.150;2022-07-29T04:01:55;100951.69;;;15.93;58.07
65151;BME280;51918;51.856;0.150;2022-07-29T04:06:56;100953.31;;;15.94;58.25
65151;BME280;51918;51.856;0.150;2022-07-29T04:11:57;100947.50;;;15.92;58.04
65151;BME280;51918;51.856;0.150;2022-07-29T04:16:59;100945.69;;;15.93;58.31
65151;BME280;51918;51.856;0.150;2022-07-29T04:22:00;100947.84;;;15.89;58.41
65151;BME280;51918;51.856;0.150;2022-07-29T04:27:01;100945.09;;;15.76;58.13
65151;BME280;51918;51.856;0.150;2022-07-29T04:32:03;100933.63;;;15.85;58.60
65151;BME280;51918;51.856;0.150;2022-07-29T04:37:03;100946.44;;;15.87;58.81
65151;BME280;51918;51.856;0.150;2022-07-29T04:42:04;100941.41;;;15.85;59.15
65151;BME280;51918;51.856;0.150;2022-07-29T04:47:09;100946.25;;;15.88;58.81
65151;BME280;51918;51.856;0.150;2022-07-29T04:52:09;100948.09;;;15.94;59.15
65151;BME280;51918;51.856;0.150;2022-07-29T04:57:10;100963.91;;;15.99;58.95
65151;BME280;51918;51.856;0.150;2022-07-29T05:02:13;100957.19;;;16.05;58.54
65151;BME280;51918;51.856;0.150;2022-07-29T05:07:14;100956.63;;;16.10;58.94
65151;BME280;51918;51.856;0.150;2022-07-29T05:12:14;100949.06;;;16.15;58.62
65151;BME280;51918;51.856;0.150;2022-07-29T05:17:16;100942.94;;;16.23;58.76
65151;BME280;51918;51.856;0.150;2022-07-29T05:22:17;100943.41;;;16.33;58.87
65151;BME280;51918;51.856;0.150;2022-07-29T05:27:18;100943.13;;;16.49;58.66
65151;BME280;51918;51.856;0.150;2022-07-29T05:32:20;100951.19;;;16.61;58.76
65151;BME280;51918;51.856;0.150;2022-07-29T05:37:21;100944.75;;;16.85;58.26
65151;BME280;51918;51.856;0.150;2022-07-29T05:42:22;100952.44;;;17.07;57.91
65151;BME280;51918;51.856;0.150;2022-07-29T05:47:24;100971.75;;;17.32;56.94
65151;BME280;51918;51.856;0.150;2022-07-29T05:52:24;100977.41;;;17.49;56.31
65151;BME280;51918;51.856;0.150;2022-07-29T05:57:25;100980.03;;;17.56;56.05
65151;BME280;51918;51.856;0.150;2022-07-29T06:02:27;100977.19;;;17.57;56.33
65151;BME280;51918;51.856;0.150;2022-07-29T06:07:28;100978.22;;;17.56;56.59
65151;BME280;51918;51.856;0.150;2022-07-29T06:12:28;100975.63;;;17.56;56.99
65151;BME280;51918;51.856;0.150;2022-07-29T06:17:30;100972.97;;;17.43;57.42
65151;BME280;51918;51.856;0.150;2022-07-29T06:22:31;100986.03;;;17.63;57.77
65151;BME280;51918;51.856;0.150;2022-07-29T06:27:32;100981.13;;;17.88;57.65
65151;BME280;51918;51.856;0.150;2022-07-29T06:32:35;100987.50;;;18.45;57.03
65151;BME280;51918;51.856;0.150;2022-07-29T06:37:36;100981.53;;;19.23;55.38
65151;BME280;51918;51.856;0.150;2022-07-29T06:42:36;100978.50;;;19.97;53.55
65151;BME280;51918;51.856;0.150;2022-07-29T06:47:39;100971.94;;;20.63;51.57
65151;BME280;51918;51.856;0.150;2022-07-29T06:52:39;100975.34;;;21.49;50.08
65151;BME280;51918;51.856;0.150;2022-07-29T06:57:40;100981.06;;;22.11;48.13
65151;BME280;51918;51.856;0.150;2022-07-29T07:02:42;100976.72;;;22.41;48.12
65151;BME280;51918;51.856;0.150;2022-07-29T07:07:42;100970.97;;;22.91;46.88
65151;BME280;51918;51.856;0.150;2022-07-29T07:12:43;100975.91;;;23.45;45.42
65151;BME280;51918;51.856;0.150;2022-07-29T07:17:45;100972.59;;;24.00;44.34
65151;BME280;51918;51.856;0.150;2022-07-29T07:22:46;100968.78;;;24.64;42.44
65151;BME280;51918;51.856;0.150;2022-07-29T07:27:46;100963.22;;;25.09;41.31
65151;BME280;51918;51.856;0.150;2022-07-29T07:32:49;100982.47;;;25.96;39.56
65151;BME280;51918;51.856;0.150;2022-07-29T07:37:49;100979.16;;;26.59;38.18
65151;BME280;51918;51.856;0.150;2022-07-29T07:42:50;100995.13;;;27.00;37.00
65151;BME280;51918;51.856;0.150;2022-07-29T07:47:52;100992.84;;;27.55;35.56
65151;BME280;51918;51.856;0.150;2022-07-29T07:52:54;100992.28;;;28.30;34.89
65151;BME280;51918;51.856;0.150;2022-07-29T07:57:55;100987.91;;;29.14;33.22
65151;BME280;51918;51.856;0.150;2022-07-29T08:02:57;100994.03;;;29.83;31.67
65151;BME280;51918;51.856;0.150;2022-07-29T08:07:57;100998.31;;;30.81;29.49
65151;BME280;51918;51.856;0.150;2022-07-29T08:12:58;100982.28;;;31.57;27.30
65151;BME280;51918;51.856;0.150;2022-07-29T08:18:00;100989.66;;;31.93;26.45
65151;BME280;51918;51.856;0.150;2022-07-29T08:23:01;100990.78;;;32.19;27.14
65151;BME280;51918;51.856;0.150;2022-07-29T08:28:02;100992.22;;;32.67;25.98
65151;BME280;51918;51.856;0.150;2022-07-29T08:33:05;100989.66;;;32.98;25.04
65151;BME280;51918;51.856;0.150;2022-07-29T08:38:05;100987.22;;;33.56;23.23
65151;BME280;51918;51.856;0.150;2022-07-29T08:43:06;100987.75;;;33.98;22.75
65151;BME280;51918;51.856;0.150;2022-07-29T08:48:08;100986.94;;;34.28;22.30
65151;BME280;51918;51.856;0.150;2022-07-29T08:53:12;100983.88;;;34.96;22.19
65151;BME280;51918;51.856;0.150;2022-07-29T08:58:13;100989.25;;;35.69;21.06
65151;BME280;51918;51.856;0.150;2022-07-29T09:03:17;100987.78;;;36.49;20.08
65151;BME280;51918;51.856;0.150;2022-07-29T09:08:19;100992.31;;;37.11;20.10
65151;BME280;51918;51.856;0.150;2022-07-29T09:13:19;100984.13;;;37.66;18.16
65151;BME280;51918;51.856;0.150;2022-07-29T09:18:38;100988.72;;;38.39;18.50
65151;BME280;51918;51.856;0.150;2022-07-29T09:23:39;100988.22;;;38.62;17.11
65151;BME280;51918;51.856;0.150;2022-07-29T09:28:41;100977.81;;;39.04;15.80
65151;BME280;51918;51.856;0.150;2022-07-29T09:33:43;100989.78;;;39.67;16.33
65151;BME280;51918;51.856;0.150;2022-07-29T09:38:56;100983.19;;;39.80;15.48
65151;BME280;51918;51.856;0.150;2022-07-29T09:43:58;100973.81;;;39.74;15.51
65151;BME280;51918;51.856;0.150;2022-07-29T09:49:10;100976.09;;;40.27;14.75
65151;BME280;51918;51.856;0.150;2022-07-29T09:54:24;100971.84;;;39.90;14.44
65151;BME280;51918;51.856;0.150;2022-07-29T09:59:25;100967.03;;;39.32;15.21
65151;BME280;51918;51.856;0.150;2022-07-29T10:04:38;100959.91;;;39.72;14.73
65151;BME280;51918;51.856;0.150;2022-07-29T10:09:39;100965.53;;;39.67;14.86
65151;BME280;51918;51.856;0.150;2022-07-29T10:14:50;100959.59;;;40.67;15.55
65151;BME280;51918;51.856;0.150;2022-07-29T10:19:52;100954.56;;;41.31;13.84
65151;BME280;51918;51.856;0.150;2022-07-29T10:24:54;100944.16;;;41.10;13.71
65151;BME280;51918;51.856;0.150;2022-07-29T10:29:55;100949.09;;;41.05;13.93
65151;BME280;51918;51.856;0.150;2022-07-29T10:35:12;100952.34;;;41.90;13.15
65151;BME280;51918;51.856;0.150;2022-07-29T10:40:21;100948.00;;;41.82;13.12
65151;BME280;51918;51.856;0.150;2022-07-29T10:45:22;100953.56;;;41.93;12.72
65151;BME280;51918;51.856;0.150;2022-07-29T10:50:25;100949.47;;;42.40;14.23
65151;BME280;51918;51.856;0.150;2022-07-29T10:55:34;100948.28;;;43.12;13.13
65151;BME280;51918;51.856;0.150;2022-07-29T11:00:35;100947.72;;;43.37;12.43
65151;BME280;51918;51.856;0.150;2022-07-29T11:05:53;100941.81;;;43.83;11.89
65151;BME280;51918;51.856;0.150;2022-07-29T11:17:00;100938.84;;;44.10;11.34
65151;BME280;51918;51.856;0.150;2022-07-29T11:22:02;100938.41;;;43.34;10.90
65151;BME280;51918;51.856;0.150;2022-07-29T11:27:14;100939.25;;;42.94;11.94
65151;BME280;51918;51.856;0.150;2022-07-29T11:32:16;100937.00;;;43.07;11.85
65151;BME280;51918;51.856;0.150;2022-07-29T11:37:20;100932.31;;;43.52;12.25
65151;BME280;51918;51.856;0.150;2022-07-29T11:42:37;100931.22;;;44.41;11.50
65151;BME280;51918;51.856;0.150;2022-07-29T11:47:39;100932.78;;;44.70;10.86
65151;BME280;51918;51.856;0.150;2022-07-29T11:52:44;100925.59;;;43.94;11.36
65151;BME280;51918;51.856;0.150;2022-07-29T11:57:46;100934.44;;;43.76;11.22
65151;BME280;51918;51.856;0.150;2022-07-29T12:02:47;100930.69;;;44.10;11.45
65151;BME280;51918;51.856;0.150;2022-07-29T12:07:49;100936.16;;;44.13;10.67
65151;BME280;51918;51.856;0.150;2022-07-29T12:12:51;100916.41;;;44.31;11.52
65151;BME280;51918;51.856;0.150;2022-07-29T12:17:52;100931.84;;;44.02;10.50
65151;BME280;51918;51.856;0.150;2022-07-29T12:22:55;100919.34;;;43.83;11.05
65151;BME280;51918;51.856;0.150;2022-07-29T12:28:00;100924.53;;;44.13;10.81
65151;BME280;51918;51.856;0.150;2022-07-29T12:33:01;100924.56;;;44.34;10.63
65151;BME280;51918;51.856;0.150;2022-07-29T12:38:03;100913.28;;;44.04;11.02
65151;BME280;51918;51.856;0.150;2022-07-29T12:43:06;100908.66;;;42.90;11.15
65151;BME280;51918;51.856;0.150;2022-07-29T12:48:09;100909.56;;;43.05;11.38
65151;BME280;51918;51.856;0.150;2022-07-29T12:53:13;100910.22;;;43.43;11.05
65151;BME280;51918;51.856;0.150;2022-07-29T12:58:14;100913.84;;;43.68;10.43
65151;BME280;51918;51.856;0.150;2022-07-29T13:03:14;100913.75;;;43.50;11.02
65151;BME280;51918;51.856;0.150;2022-07-29T13:08:17;100903.06;;;43.16;11.16
65151;BME280;51918;51.856;0.150;2022-07-29T13:13:18;100893.56;;;43.41;10.77
65151;BME280;51918;51.856;0.150;2022-07-29T13:18:29;100891.88;;;43.95;10.66
65151;BME280;51918;51.856;0.150;2022-07-29T13:23:31;100893.91;;;44.12;10.43
65151;BME280;51918;51.856;0.150;2022-07-29T13:28:32;100886.16;;;44.11;10.55
65151;BME280;51918;51.856;0.150;2022-07-29T13:33:33;100887.66;;;43.97;10.66
65151;BME280;51918;51.856;0.150;2022-07-29T13:38:35;100877.63;;;44.16;10.98
65151;BME280;51918;51.856;0.150;2022-07-29T13:43:35;100871.13;;;44.46;10.64
65151;BME280;51918;51.856;0.150;2022-07-29T13:48:36;100864.13;;;44.48;9.98
65151;BME280;51918;51.856;0.150;2022-07-29T13:53:38;100877.66;;;44.23;10.13
65151;BME280;51918;51.856;0.150;2022-07-29T13:58:39;100884.81;;;43.69;10.39
65151;BME280;51918;51.856;0.150;2022-07-29T14:03:39;100884.19;;;42.83;11.00
65151;BME280;51918;51.856;0.150;2022-07-29T14:08:41;100888.09;;;42.07;11.59
65151;BME280;51918;51.856;0.150;2022-07-29T14:13:42;100887.41;;;41.56;12.04
65151;BME280;51918;51.856;0.150;2022-07-29T14:18:43;100883.75;;;41.45;11.65
65151;BME280;51918;51.856;0.150;2022-07-29T14:23:45;100879.88;;;40.93;12.03
65151;BME280;51918;51.856;0.150;2022-07-29T14:28:45;100889.59;;;40.35;12.29
65151;BME280;51918;51.856;0.150;2022-07-29T14:33:46;100891.19;;;39.46;12.63
65151;BME280;51918;51.856;0.150;2022-07-29T14:38:48;100889.63;;;38.25;13.33
65151;BME280;51918;51.856;0.150;2022-07-29T14:43:49;100887.28;;;36.55;14.46
65151;BME280;51918;51.856;0.150;2022-07-29T14:48:49;100884.47;;;34.94;15.66
65151;BME280;51918;51.856;0.150;2022-07-29T14:53:51;100882.13;;;34.23;16.62
65151;BME280;51918;51.856;0.150;2022-07-29T14:58:52;100883.88;;;34.27;16.94
65151;BME280;51918;51.856;0.150;2022-07-29T15:03:52;100880.41;;;34.36;17.26
65151;BME280;51918;51.856;0.150;2022-07-29T15:08:54;100873.31;;;34.22;16.75
65151;BME280;51918;51.856;0.150;2022-07-29T15:13:55;100871.81;;;33.81;17.33
65151;BME280;51918;51.856;0.150;2022-07-29T15:18:55;100856.13;;;33.71;17.66
65151;BME280;51918;51.856;0.150;2022-07-29T15:23:58;100850.31;;;33.69;18.08
65151;BME280;51918;51.856;0.150;2022-07-29T15:28:59;100847.31;;;33.79;17.61
65151;BME280;51918;51.856;0.150;2022-07-29T15:34:00;100845.59;;;33.75;17.55
65151;BME280;51918;51.856;0.150;2022-07-29T15:39:02;100844.81;;;33.74;17.34
65151;BME280;51918;51.856;0.150;2022-07-29T15:44:03;100836.88;;;33.43;18.07
65151;BME280;51918;51.856;0.150;2022-07-29T15:49:05;100855.28;;;33.22;18.13
65151;BME280;51918;51.856;0.150;2022-07-29T15:54:07;100862.19;;;33.23;18.57
65151;BME280;51918;51.856;0.150;2022-07-29T15:59:08;100874.44;;;33.24;19.30
65151;BME280;51918;51.856;0.150;2022-07-29T16:04:08;100868.34;;;33.10;19.28
65151;BME280;51918;51.856;0.150;2022-07-29T16:09:10;100875.34;;;32.97;19.13
65151;BME280;51918;51.856;0.150;2022-07-29T16:14:11;100872.28;;;32.81;18.87
65151;BME280;51918;51.856;0.150;2022-07-29T16:19:12;100880.44;;;32.48;19.27
65151;BME280;51918;51.856;0.150;2022-07-29T16:24:14;100875.03;;;32.17;19.42
65151;BME280;51918;51.856;0.150;2022-07-29T16:29:15;100874.94;;;31.80;20.63
65151;BME280;51918;51.856;0.150;2022-07-29T16:34:15;100872.69;;;31.13;22.37
65151;BME280;51918;51.856;0.150;2022-07-29T16:39:17;100873.00;;;30.74;23.20
65151;BME280;51918;51.856;0.150;2022-07-29T16:44:18;100867.78;;;30.07;23.73
65151;BME280;51918;51.856;0.150;2022-07-29T16:49:18;100872.44;;;29.42;24.56
65151;BME280;51918;51.856;0.150;2022-07-29T16:54:21;100878.31;;;29.05;24.87
65151;BME280;51918;51.856;0.150;2022-07-29T16:59:21;100866.25;;;28.83;25.37
65151;BME280;51918;51.856;0.150;2022-07-29T17:04:22;100872.34;;;28.84;25.14
65151;BME280;51918;51.856;0.150;2022-07-29T17:09:24;100875.03;;;28.34;25.80
65151;BME280;51918;51.856;0.150;2022-07-29T17:14:27;100869.78;;;28.19;26.06
65151;BME280;51918;51.856;0.150;2022-07-29T17:19:29;100876.47;;;27.96;27.83
65151;BME280;51918;51.856;0.150;2022-07-29T17:24:32;100872.88;;;27.40;29.07
65151;BME280;51918;51.856;0.150;2022-07-29T17:29:33;100880.00;;;27.04;30.26
65151;BME280;51918;51.856;0.150;2022-07-29T17:34:34;100891.22;;;26.48;31.77
65151;BME280;51918;51.856;0.150;2022-07-29T17:39:36;100895.53;;;26.12;32.27
65151;BME280;51918;51.856;0.150;2022-07-29T17:44:37;100898.19;;;25.74;33.13
65151;BME280;51918;51.856;0.150;2022-07-29T17:49:38;100898.09;;;25.59;33.27
65151;BME280;51918;51.856;0.150;2022-07-29T17:54:40;100902.94;;;25.40;33.72
65151;BME280;51918;51.856;0.150;2022-07-29T17:59:40;100892.91;;;25.10;34.78
65151;BME280;51918;51.856;0.150;2022-07-29T18:04:41;100893.88;;;24.99;34.70
65151;BME280;51918;51.856;0.150;2022-07-29T18:09:43;100901.28;;;24.74;35.34
65151;BME280;51918;51.856;0.150;2022-07-29T18:14:44;100898.22;;;24.61;35.86
65151;BME280;51918;51.856;0.150;2022-07-29T18:19:45;100906.44;;;24.47;36.22
65151;BME280;51918;51.856;0.150;2022-07-29T18:24:47;100905.28;;;24.16;36.67
65151;BME280;51918;51.856;0.150;2022-07-29T18:29:48;100902.13;;;23.97;37.23
65151;BME280;51918;51.856;0.150;2022-07-29T18:34:48;100892.03;;;23.89;37.31
65151;BME280;51918;51.856;0.150;2022-07-29T18:39:50;100903.41;;;23.61;37.83
65151;BME280;51918;51.856;0.150;2022-07-29T18:44:51;100896.41;;;23.49;38.40
65151;BME280;51918;51.856;0.150;2022-07-29T18:49:52;100900.31;;;23.30;38.64
65151;BME280;51918;51.856;0.150;2022-07-29T18:54:54;100901.81;;;23.14;39.01
65151;BME280;51918;51.856;0.150;2022-07-29T18:59:55;100906.91;;;22.75;39.83
65151;BME280;51918;51.856;0.150;2022-07-29T19:04:55;100918.00;;;22.65;39.83
65151;BME280;51918;51.856;0.150;2022-07-29T19:09:57;100930.13;;;22.55;39.79
65151;BME280;51918;51.856;0.150;2022-07-29T19:14:58;100940.25;;;22.27;40.78
65151;BME280;51918;51.856;0.150;2022-07-29T19:19:59;100936.50;;;22.11;41.24
65151;BME280;51918;51.856;0.150;2022-07-29T19:25:01;100949.25;;;22.20;41.21
65151;BME280;51918;51.856;0.150;2022-07-29T19:30:02;100949.03;;;22.09;41.55
65151;BME280;51918;51.856;0.150;2022-07-29T19:35:03;100970.59;;;21.69;43.24
65151;BME280;51918;51.856;0.150;2022-07-29T19:40:06;100965.75;;;21.43;43.79
65151;BME280;51918;51.856;0.150;2022-07-29T19:45:08;100971.13;;;21.29;44.16
65151;BME280;51918;51.856;0.150;2022-07-29T19:50:09;100967.25;;;21.20;45.00
65151;BME280;51918;51.856;0.150;2022-07-29T19:55:11;100973.44;;;21.07;45.26
65151;BME280;51918;51.856;0.150;2022-07-29T20:00:12;100971.09;;;20.99;45.45
65151;BME280;51918;51.856;0.150;2022-07-29T20:05:13;100982.75;;;21.03;45.21
65151;BME280;51918;51.856;0.150;2022-07-29T20:10:15;100979.88;;;20.86;45.69
65151;BME280;51918;51.856;0.150;2022-07-29T20:15:16;100994.00;;;20.85;46.14
65151;BME280;51918;51.856;0.150;2022-07-29T20:20:17;100995.28;;;20.58;46.57
65151;BME280;51918;51.856;0.150;2022-07-29T20:25:19;101002.81;;;20.47;46.78
65151;BME280;51918;51.856;0.150;2022-07-29T20:30:20;100996.84;;;20.40;46.42
65151;BME280;51918;51.856;0.150;2022-07-29T20:35:21;100990.97;;;20.26;46.65
65151;BME280;51918;51.856;0.150;2022-07-29T20:40:24;100995.44;;;20.13;47.87
65151;BME280;51918;51.856;0.150;2022-07-29T20:45:25;101000.25;;;19.91;48.69
65151;BME280;51918;51.856;0.150;2022-07-29T20:50:26;101005.22;;;19.67;49.54
65151;BME280;51918;51.856;0.150;2022-07-29T20:55:28;101003.09;;;19.51;50.60
65151;BME280;51918;51.856;0.150;2022-07-29T21:00:29;100995.75;;;19.27;51.53
65151;BME280;51918;51.856;0.150;2022-07-29T21:05:29;100997.16;;;19.30;51.24
65151;BME280;51918;51.856;0.150;2022-07-29T21:10:31;101004.22;;;19.16;52.59
65151;BME280;51918;51.856;0.150;2022-07-29T21:15:32;101006.09;;;18.96;54.22
65151;BME280;51918;51.856;0.150;2022-07-29T21:20:33;101005.31;;;18.95;53.93
65151;BME280;51918;51.856;0.150;2022-07-29T21:25:35;101011.94;;;18.78;54.31
65151;BME280;51918;51.856;0.150;2022-07-29T21:30:36;101021.97;;;18.81;54.48
65151;BME280;51918;51.856;0.150;2022-07-29T21:35:36;101022.59;;;18.70;54.69
65151;BME280;51918;51.856;0.150;2022-07-29T21:40:38;101026.81;;;18.64;54.08
65151;BME280;51918;51.856;0.150;2022-07-29T21:45:39;101021.19;;;18.60;54.53
65151;BME280;51918;51.856;0.150;2022-07-29T21:50:40;101027.41;;;18.46;55.54
65151;BME280;51918;51.856;0.150;2022-07-29T21:55:42;101015.97;;;18.40;56.25
65151;BME280;51918;51.856;0.150;2022-07-29T22:00:44;101026.81;;;18.44;55.63
65151;BME280;51918;51.856;0.150;2022-07-29T22:05:44;101029.78;;;18.48;55.21
65151;BME280;51918;51.856;0.150;2022-07-29T22:10:46;101011.38;;;18.36;55.79
65151;BME280;51918;51.856;0.150;2022-07-29T22:15:47;101017.38;;;18.10;56.81
65151;BME280;51918;51.856;0.150;2022-07-29T22:20:48;101016.78;;;18.21;55.78
65151;BME280;51918;51.856;0.150;2022-07-29T22:25:50;101013.97;;;18.09;56.08
65151;BME280;51918;51.856;0.150;2022-07-29T22:30:51;101009.75;;;18.08;56.94
65151;BME280;51918;51.856;0.150;2022-07-29T22:35:51;101002.75;;;18.02;56.84
65151;BME280;51918;51.856;0.150;2022-07-29T22:40:53;101004.13;;;17.98;57.23
65151;BME280;51918;51.856;0.150;2022-07-29T22:45:54;101019.75;;;17.84;56.94
65151;BME280;51918;51.856;0.150;2022-07-29T22:50:54;101016.94;;;17.79;57.19
65151;BME280;51918;51.856;0.150;2022-07-29T22:55:56;101021.13;;;17.80;57.50
65151;BME280;51918;51.856;0.150;2022-07-29T23:00:57;101025.09;;;17.70;57.61
65151;BME280;51918;51.856;0.150;2022-07-29T23:05:57;101024.41;;;17.48;57.91
65151;BME280;51918;51.856;0.150;2022-07-29T23:10:59;101023.63;;;17.54;58.39
65151;BME280;51918;51.856;0.150;2022-07-29T23:16:00;101017.38;;;17.41;58.39
65151;BME280;51918;51.856;0.150;2022-07-29T23:21:01;101018.72;;;17.24;59.07
65151;BME280;51918;51.856;0.150;2022-07-29T23:26:03;101007.91;;;17.27;59.41
65151;BME280;51918;51.856;0.150;2022-07-29T23:31:03;101000.81;;;17.08;59.76
65151;BME280;51918;51.856;0.150;2022-07-29T23:36:04;101010.13;;;17.23;59.40
65151;BME280;51918;51.856;0.150;2022-07-29T23:41:06;100997.31;;;17.22;59.62
65151;BME280;51918;51.856;0.150;2022-07-29T23:46:06;101015.63;;;17.07;60.07
65151;BME280;51918;51.856;0.150;2022-07-29T23:51:07;100997.84;;;17.04;60.44
65151;BME280;51918;51.856;0.150;2022-07-29T23:56:09;101002.03;;;17.05;59.68
